createdAt,value
2023-01-20T00:01:47.229Z,99838.58
2023-01-20T00:04:18.440Z,99838.75
2023-01-20T00:06:47.034Z,99839.42
2023-01-20T00:09:17.326Z,99846.44
2023-01-20T00:11:45.719Z,99847.13
2023-01-20T00:14:13.569Z,99847.63
2023-01-20T00:16:41.835Z,99849.34
2023-01-20T00:19:13.746Z,99849.84
2023-01-20T00:21:42.384Z,99844.73
2023-01-20T00:24:10.383Z,99849.69
2023-01-20T00:26:38.296Z,99851.56
2023-01-20T00:29:06.077Z,99851.39
2023-01-20T00:31:35.565Z,99852.77
2023-01-20T00:34:03.641Z,99855.48
2023-01-20T00:36:32.296Z,99860.61
2023-01-20T00:39:02.318Z,99860.63
2023-01-20T00:41:30.540Z,99862.33
2023-01-20T00:43:58.502Z,99865.91
2023-01-20T00:46:27.020Z,99864.89
2023-01-20T00:48:55.208Z,99864.89
2023-01-20T00:51:23.199Z,99864.37
2023-01-20T00:53:51.260Z,99866.94
2023-01-20T00:56:19.191Z,99867.28
2023-01-20T00:58:47.763Z,99867.80
2023-01-20T01:01:15.711Z,99871.55
2023-01-20T01:03:43.921Z,99875.14
2023-01-20T01:06:16.240Z,99877.54
2023-01-20T01:08:44.016Z,99878.91
2023-01-20T01:11:13.178Z,99883.52
2023-01-20T01:13:41.425Z,99885.56
2023-01-20T01:16:12.425Z,99884.38
2023-01-20T01:18:41.454Z,99890.02
2023-01-20T01:21:12.565Z,99891.71
2023-01-20T01:23:40.629Z,99887.27
2023-01-20T01:26:09.941Z,99887.96
2023-01-20T01:28:38.321Z,99891.21
2023-01-20T01:31:07.654Z,99891.38
2023-01-20T01:33:36.139Z,99893.44
2023-01-20T01:36:04.911Z,99895.32
2023-01-20T01:38:32.734Z,99896.67
2023-01-20T01:41:01.051Z,99898.73
2023-01-20T01:43:32.298Z,99901.30
2023-01-20T01:46:00.759Z,99900.10
2023-01-20T01:48:43.216Z,99902.83
2023-01-20T01:51:27.969Z,99904.02
2023-01-20T01:53:59.680Z,99907.27
2023-01-20T01:56:29.488Z,99901.97
2023-01-20T01:59:02.087Z,99896.50
2023-01-20T02:01:34.709Z,99898.37
2023-01-20T02:04:13.222Z,99899.58
2023-01-20T02:06:59.124Z,99900.59
2023-01-20T02:09:28.662Z,99901.45
2023-01-20T02:12:01.879Z,99901.09
2023-01-20T02:14:45.471Z,99900.07
2023-01-20T02:17:30.757Z,99900.06
2023-01-20T02:20:35.748Z,99897.83
2023-01-20T02:23:56.005Z,99894.59
2023-01-20T02:26:44.603Z,99894.92
2023-01-20T02:29:30.699Z,99904.66
2023-01-20T02:32:44.077Z,99910.13
2023-01-20T02:35:45.679Z,99915.25
2023-01-20T02:38:45.498Z,99923.44
2023-01-20T02:41:34.775Z,99926.50
2023-01-20T02:44:35.954Z,99929.91
2023-01-20T02:47:36.675Z,99936.05
2023-01-20T02:50:19.841Z,99938.08
2023-01-20T02:52:57.303Z,99936.86
2023-01-20T02:55:40.422Z,99936.70
2023-01-20T02:58:37.555Z,99940.43
2023-01-20T03:01:32.418Z,99942.48
2023-01-20T03:04:03.277Z,99949.47
2023-01-20T03:06:45.895Z,99955.09
2023-01-20T03:09:20.823Z,99955.58
2023-01-20T03:11:57.413Z,99958.81
2023-01-20T03:14:25.665Z,99958.63
2023-01-20T03:16:53.802Z,99962.54
2023-01-20T03:19:21.709Z,99960.98
2023-01-20T03:21:49.722Z,99959.80
2023-01-20T03:24:17.600Z,99962.68
2023-01-20T03:26:45.691Z,99962.49
2023-01-20T03:29:15.425Z,99966.05
2023-01-20T03:31:58.438Z,99967.76
2023-01-20T03:34:31.081Z,99966.88
2023-01-20T03:37:00.351Z,99964.13
2023-01-20T03:39:28.759Z,99964.80
2023-01-20T03:42:07.265Z,99968.05
2023-01-20T03:45:04.915Z,99969.20
2023-01-20T03:48:17.205Z,99967.83
2023-01-20T03:50:53.787Z,99968.30
2023-01-20T03:53:58.107Z,99973.75
2023-01-20T03:56:46.086Z,99978.35
2023-01-20T03:59:16.644Z,99976.80
2023-01-20T04:01:44.908Z,99978.34
2023-01-20T04:04:18.611Z,99976.30
2023-01-20T04:06:50.061Z,99982.27
2023-01-20T04:09:26.286Z,99985.02
2023-01-20T04:11:55.067Z,99988.08
2023-01-20T04:14:23.018Z,99991.84
2023-01-20T04:16:55.238Z,99996.12
2023-01-20T04:19:24.457Z,100000.40
2023-01-20T04:22:29.817Z,100011.50
2023-01-20T04:25:14.244Z,100013.38
2023-01-20T04:27:42.188Z,100012.03
2023-01-20T04:30:12.264Z,100016.31
2023-01-20T04:32:40.162Z,100022.64
2023-01-20T04:35:19.722Z,100028.44
2023-01-20T04:37:47.747Z,100027.58
2023-01-20T04:40:15.912Z,100029.30
2023-01-20T04:42:43.782Z,100029.98
2023-01-20T04:45:16.347Z,100035.63
2023-01-20T04:47:44.414Z,100039.06
2023-01-20T04:50:14.545Z,100041.80
2023-01-20T04:52:43.270Z,100047.29
2023-01-20T04:55:11.939Z,100054.95
2023-01-20T04:57:40.043Z,100062.09
2023-01-20T05:00:08.793Z,100062.05
2023-01-20T05:02:36.653Z,100061.03
2023-01-20T05:05:04.797Z,100062.42
2023-01-20T05:07:32.577Z,100067.38
2023-01-20T05:10:00.331Z,100066.89
2023-01-20T05:12:28.351Z,100069.43
2023-01-20T05:14:56.121Z,100073.36
2023-01-20T05:17:23.907Z,100074.39
2023-01-20T05:19:51.760Z,100074.41
2023-01-20T05:22:19.724Z,100076.14
2023-01-20T05:24:47.649Z,100077.68
2023-01-20T05:27:15.556Z,100085.00
2023-01-20T05:29:43.230Z,100081.58
2023-01-20T05:32:11.156Z,100083.96
2023-01-20T05:34:38.790Z,100088.92
2023-01-20T05:37:18.556Z,100099.67
2023-01-20T05:39:46.468Z,100110.41
2023-01-20T05:42:15.191Z,100119.93
2023-01-20T05:44:43.388Z,100124.19
2023-01-20T05:47:11.624Z,100124.16
2023-01-20T05:49:39.584Z,100120.40
2023-01-20T05:52:07.412Z,100118.16
2023-01-20T05:54:35.711Z,100120.39
2023-01-20T05:57:05.048Z,100124.30
2023-01-20T05:59:34.297Z,100129.58
2023-01-20T06:02:02.168Z,100131.27
2023-01-20T06:04:30.036Z,100131.25
2023-01-20T06:06:58.018Z,100126.61
2023-01-20T06:09:26.009Z,100124.50
2023-01-20T06:11:53.916Z,100131.95
2023-01-20T06:14:21.718Z,100134.96
2023-01-20T06:16:49.690Z,100136.79
2023-01-20T06:19:17.741Z,100144.23
2023-01-20T06:21:47.553Z,100145.41
2023-01-20T06:24:15.514Z,100147.10
2023-01-20T06:26:44.442Z,100148.12
2023-01-20T06:29:12.314Z,100147.92
2023-01-20T06:31:40.390Z,100147.58
2023-01-20T06:34:08.244Z,100151.86
2023-01-20T06:36:36.257Z,100150.68
2023-01-20T06:39:04.476Z,100152.55
2023-01-20T06:41:32.625Z,100152.71
2023-01-20T06:44:00.621Z,100152.00
2023-01-20T06:46:28.464Z,100145.34
2023-01-20T06:48:59.839Z,100143.47
2023-01-20T06:51:29.968Z,100138.35
2023-01-20T06:54:00.744Z,100139.03
2023-01-20T06:56:28.530Z,100141.58
2023-01-20T06:58:56.357Z,100146.35
2023-01-20T07:01:31.549Z,100152.83
2023-01-20T07:04:00.216Z,100155.05
2023-01-20T07:06:35.254Z,100158.48
2023-01-20T07:09:04.993Z,100160.21
2023-01-20T07:11:36.791Z,100161.09
2023-01-20T07:14:06.813Z,100162.13
2023-01-20T07:16:35.886Z,100164.52
2023-01-20T07:19:04.806Z,100165.38
2023-01-20T07:21:33.082Z,100169.65
2023-01-20T07:24:02.090Z,100175.65
2023-01-20T07:26:30.864Z,100179.59
2023-01-20T07:28:58.937Z,100192.08
2023-01-20T07:31:28.960Z,100199.61
2023-01-20T07:33:57.694Z,100201.52
2023-01-20T07:36:26.123Z,100205.50
2023-01-20T07:38:54.139Z,100213.41
2023-01-20T07:41:22.128Z,100222.86
2023-01-20T07:43:52.088Z,100238.95
2023-01-20T07:46:20.491Z,100240.40
2023-01-20T07:48:49.015Z,100238.77
2023-01-20T07:51:17.993Z,100237.50
2023-01-20T07:53:48.672Z,100239.25
2023-01-20T07:56:26.973Z,100236.58
2023-01-20T07:58:55.590Z,100234.77
2023-01-20T08:01:29.745Z,100236.75
2023-01-20T08:04:02.021Z,100242.14
2023-01-20T08:06:30.270Z,100252.80
2023-01-20T08:09:01.861Z,100258.02
2023-01-20T08:11:31.641Z,100262.00
2023-01-20T08:13:59.559Z,100262.23
2023-01-20T08:16:27.409Z,100266.55
2023-01-20T08:18:55.354Z,100269.86
2023-01-20T08:21:30.098Z,100274.89
2023-01-20T08:24:01.013Z,100276.48
2023-01-20T08:26:30.139Z,100280.61
2023-01-20T08:29:06.352Z,100281.35
2023-01-20T08:31:35.606Z,100282.92
2023-01-20T08:34:04.821Z,100290.47
2023-01-20T08:36:36.369Z,100300.09
2023-01-20T08:39:08.102Z,100303.21
2023-01-20T08:41:39.121Z,100309.56
2023-01-20T08:44:10.148Z,100317.27
2023-01-20T08:46:41.801Z,100316.95
2023-01-20T08:49:14.408Z,100320.55
2023-01-20T08:51:44.249Z,100321.59
2023-01-20T08:54:12.211Z,100326.91
2023-01-20T08:56:40.527Z,100327.26
2023-01-20T08:59:08.329Z,100328.96
2023-01-20T09:01:37.278Z,100334.48
2023-01-20T09:04:07.433Z,100338.77
2023-01-20T09:06:46.040Z,100340.85
2023-01-20T09:09:17.514Z,100339.66
2023-01-20T09:11:51.569Z,100339.52
2023-01-20T09:14:22.799Z,100341.42
2023-01-20T09:16:51.366Z,100344.34
2023-01-20T09:19:19.323Z,100345.55
2023-01-20T09:21:47.527Z,100349.50
2023-01-20T09:24:15.564Z,100352.76
2023-01-20T09:26:44.393Z,100350.36
2023-01-20T09:29:15.441Z,100345.73
2023-01-20T09:31:49.916Z,100346.08
2023-01-20T09:34:23.744Z,100343.67
2023-01-20T09:36:58.323Z,100342.30
2023-01-20T09:39:44.829Z,100346.92
2023-01-20T09:42:57.035Z,100350.70
2023-01-20T09:45:51.174Z,100354.65
2023-01-20T09:49:04.128Z,100351.73
2023-01-20T09:51:59.951Z,100352.74
2023-01-20T09:54:38.116Z,100353.95
2023-01-20T09:57:08.323Z,100355.15
2023-01-20T09:59:44.167Z,100355.84
2023-01-20T10:02:24.854Z,100357.21
2023-01-20T10:05:00.058Z,100353.24
2023-01-20T10:08:10.823Z,100354.09
2023-01-20T10:11:07.907Z,100350.83
2023-01-20T10:13:55.854Z,100348.26
2023-01-20T10:16:37.470Z,100348.76
2023-01-20T10:19:30.037Z,100346.67
2023-01-20T10:22:17.357Z,100344.23
2023-01-20T10:25:08.212Z,100338.92
2023-01-20T10:27:41.899Z,100338.38
2023-01-20T10:30:13.731Z,100336.77
2023-01-20T10:33:10.264Z,100336.90
2023-01-20T10:35:46.559Z,100329.14
2023-01-20T10:39:05.169Z,100328.78
2023-01-20T10:41:46.944Z,100325.85
2023-01-20T10:44:16.010Z,100322.90
2023-01-20T10:47:19.494Z,100326.30
2023-01-20T10:49:56.790Z,100332.61
2023-01-20T10:52:58.100Z,100331.56
2023-01-20T10:55:47.780Z,100333.77
2023-01-20T10:58:42.979Z,100337.16
2023-01-20T11:01:16.918Z,100334.67
2023-01-20T11:03:49.024Z,100332.83
2023-01-20T11:06:22.829Z,100331.63
2023-01-20T11:08:50.806Z,100333.20
2023-01-20T11:11:23.324Z,100337.77
2023-01-20T11:13:52.413Z,100344.05
2023-01-20T11:16:24.880Z,100351.31
2023-01-20T11:19:03.037Z,100354.33
2023-01-20T11:21:36.252Z,100354.57
2023-01-20T11:24:33.223Z,100357.38
2023-01-20T11:27:15.752Z,100363.58
2023-01-20T11:29:52.580Z,100361.33
2023-01-20T11:32:39.672Z,100359.54
2023-01-20T11:35:25.829Z,100360.83
2023-01-20T11:37:53.683Z,100358.48
2023-01-20T11:40:25.981Z,100361.63
2023-01-20T11:42:54.859Z,100363.39
2023-01-20T11:45:30.541Z,100362.45
2023-01-20T11:48:15.942Z,100359.40
2023-01-20T11:50:49.812Z,100359.80
2023-01-20T11:53:33.289Z,100362.06
2023-01-20T11:56:17.774Z,100373.44
2023-01-20T11:59:31.875Z,100376.89
2023-01-20T12:02:01.317Z,100376.21
2023-01-20T12:04:48.519Z,100382.23
2023-01-20T12:07:31.834Z,100383.06
2023-01-20T12:10:33.877Z,100376.49
2023-01-20T12:13:22.313Z,100373.92
2023-01-20T12:16:00.742Z,100377.89
2023-01-20T12:19:01.111Z,100376.34
2023-01-20T12:21:43.348Z,100380.29
2023-01-20T12:24:38.690Z,100382.88
2023-01-20T12:27:25.189Z,100382.86
2023-01-20T12:29:59.753Z,100389.23
2023-01-20T12:32:28.744Z,100391.48
2023-01-20T12:34:57.438Z,100388.74
2023-01-20T12:37:52.693Z,100391.33
2023-01-20T12:40:38.425Z,100388.77
2023-01-20T12:43:28.606Z,100386.90
2023-01-20T12:46:21.904Z,100386.41
2023-01-20T12:49:01.706Z,100381.80
2023-01-20T12:51:38.443Z,100383.20
2023-01-20T12:54:42.979Z,100382.86
2023-01-20T12:57:46.942Z,100386.13
2023-01-20T13:00:36.431Z,100390.95
2023-01-20T13:03:58.217Z,100389.42
2023-01-20T13:06:51.091Z,100398.02
2023-01-20T13:09:27.882Z,100393.73
2023-01-20T13:12:45.259Z,100391.86
2023-01-20T13:15:55.151Z,100393.73
2023-01-20T13:19:12.711Z,100390.81
2023-01-20T13:21:42.031Z,100388.59
2023-01-20T13:24:19.781Z,100390.64
2023-01-20T13:26:48.886Z,100388.27
2023-01-20T13:29:56.168Z,100392.04
2023-01-20T13:32:47.567Z,100393.06
2023-01-20T13:35:15.671Z,100396.65
2023-01-20T13:38:04.064Z,100402.32
2023-01-20T13:40:37.957Z,100408.33
2023-01-20T13:43:26.881Z,100410.73
2023-01-20T13:46:02.667Z,100418.78
2023-01-20T13:48:34.740Z,100424.44
2023-01-20T13:51:21.243Z,100429.08
2023-01-20T13:53:49.047Z,100430.27
2023-01-20T13:56:34.629Z,100436.09
2023-01-20T13:59:02.444Z,100443.98
2023-01-20T14:01:30.164Z,100448.77
2023-01-20T14:04:21.477Z,100450.83
2023-01-20T14:06:51.923Z,100451.52
2023-01-20T14:09:25.701Z,100453.73
2023-01-20T14:11:56.616Z,100459.73
2023-01-20T14:14:26.221Z,100464.02
2023-01-20T14:16:55.838Z,100466.77
2023-01-20T14:19:34.130Z,100469.67
2023-01-20T14:22:16.984Z,100470.00
2023-01-20T14:24:49.515Z,100471.54
2023-01-20T14:27:28.999Z,100478.57
2023-01-20T14:30:12.546Z,100476.52
2023-01-20T14:32:41.043Z,100478.23
2023-01-20T14:35:31.821Z,100480.96
2023-01-20T14:38:00.485Z,100483.52
2023-01-20T14:40:32.128Z,100485.39
2023-01-20T14:43:20.064Z,100489.48
2023-01-20T14:45:52.480Z,100491.54
2023-01-20T14:48:33.448Z,100493.42
2023-01-20T14:51:03.676Z,100493.05
2023-01-20T14:53:31.480Z,100497.32
2023-01-20T14:56:09.125Z,100500.20
2023-01-20T14:58:48.868Z,100502.43
2023-01-20T15:01:25.653Z,100506.88
2023-01-20T15:04:02.035Z,100511.15
2023-01-20T15:06:30.045Z,100516.13
2023-01-20T15:09:06.651Z,100521.93
2023-01-20T15:11:35.867Z,100526.54
2023-01-20T15:14:09.817Z,100531.83
2023-01-20T15:16:44.210Z,100530.29
2023-01-20T15:19:22.137Z,100531.98
2023-01-20T15:21:58.273Z,100536.63
2023-01-20T15:24:33.877Z,100535.75
2023-01-20T15:27:16.488Z,100537.30
2023-01-20T15:30:02.323Z,100537.61
2023-01-20T15:32:30.185Z,100546.71
2023-01-20T15:34:58.160Z,100551.34
2023-01-20T15:37:26.056Z,100553.22
2023-01-20T15:39:53.988Z,100551.34
2023-01-20T15:42:23.591Z,100554.08
2023-01-20T15:44:52.084Z,100560.75
2023-01-20T15:47:30.448Z,100565.54
2023-01-20T15:49:58.436Z,100571.37
2023-01-20T15:52:26.277Z,100573.61
2023-01-20T15:54:54.428Z,100574.98
2023-01-20T15:57:23.010Z,100580.45
2023-01-20T15:59:51.028Z,100583.87
2023-01-20T16:02:22.832Z,100588.83
2023-01-20T16:04:51.004Z,100591.92
2023-01-20T16:07:20.686Z,100599.08
2023-01-20T16:09:48.760Z,100604.20
2023-01-20T16:12:19.201Z,100605.55
2023-01-20T16:14:47.116Z,100605.54
2023-01-20T16:17:20.708Z,100607.22
2023-01-20T16:19:49.932Z,100607.70
2023-01-20T16:22:17.895Z,100613.50
2023-01-20T16:24:48.465Z,100619.48
2023-01-20T16:27:22.597Z,100626.63
2023-01-20T16:29:50.805Z,100632.08
2023-01-20T16:32:22.264Z,100633.39
2023-01-20T16:34:50.439Z,100630.08
2023-01-20T16:37:18.471Z,100631.73
2023-01-20T16:39:46.534Z,100633.23
2023-01-20T16:42:16.170Z,100636.63
2023-01-20T16:44:44.114Z,100637.98
2023-01-20T16:47:12.013Z,100642.94
2023-01-20T16:49:42.455Z,100646.34
2023-01-20T16:52:11.386Z,100648.19
2023-01-20T16:54:51.320Z,100656.23
2023-01-20T16:57:20.181Z,100658.09
2023-01-20T16:59:54.328Z,100657.23
2023-01-20T17:02:22.260Z,100658.95
2023-01-20T17:04:50.652Z,100662.36
2023-01-20T17:07:19.320Z,100661.48
2023-01-20T17:09:47.463Z,100659.27
2023-01-20T17:12:16.192Z,100659.78
2023-01-20T17:14:43.981Z,100668.65
2023-01-20T17:17:12.819Z,100672.21
2023-01-20T17:19:40.615Z,100672.70
2023-01-20T17:22:08.665Z,100675.27
2023-01-20T17:24:38.615Z,100677.60
2023-01-20T17:27:06.393Z,100680.60
2023-01-20T17:29:34.977Z,100684.83
2023-01-20T17:32:02.937Z,100690.12
2023-01-20T17:34:30.745Z,100692.84
2023-01-20T17:36:59.392Z,100694.02
2023-01-20T17:39:27.279Z,100691.95
2023-01-20T17:41:58.209Z,100692.79
2023-01-20T17:44:26.021Z,100691.39
2023-01-20T17:46:53.842Z,100692.05
2023-01-20T17:49:24.852Z,100694.80
2023-01-20T17:51:52.754Z,100697.02
2023-01-20T17:54:23.909Z,100700.30
2023-01-20T17:56:51.862Z,100699.99
2023-01-20T17:59:19.631Z,100704.14
2023-01-20T18:01:51.656Z,100700.73
2023-01-20T18:04:19.721Z,100700.05
2023-01-20T18:06:48.496Z,100699.89
2023-01-20T18:09:16.425Z,100700.91
2023-01-20T18:11:44.809Z,100703.77
2023-01-20T18:14:13.104Z,100701.70
2023-01-20T18:16:41.380Z,100703.21
2023-01-20T18:19:14.126Z,100708.00
2023-01-20T18:21:43.788Z,100712.95
2023-01-20T18:24:12.801Z,100713.45
2023-01-20T18:26:43.555Z,100707.93
2023-01-20T18:29:16.716Z,100708.40
2023-01-20T18:31:45.807Z,100705.49
2023-01-20T18:34:15.051Z,100702.61
2023-01-20T18:36:45.615Z,100700.94
2023-01-20T18:39:19.731Z,100706.11
2023-01-20T18:41:49.308Z,100710.76
2023-01-20T18:44:18.314Z,100715.92
2023-01-20T18:46:46.555Z,100719.52
2023-01-20T18:49:18.714Z,100719.53
2023-01-20T18:51:49.058Z,100729.77
2023-01-20T18:54:22.529Z,100733.65
2023-01-20T18:56:50.214Z,100735.33
2023-01-20T18:59:18.226Z,100737.53
2023-01-20T19:01:46.644Z,100744.40
2023-01-20T19:04:15.060Z,100750.05
2023-01-20T19:06:44.789Z,100747.98
2023-01-20T19:09:15.580Z,100753.90
2023-01-20T19:11:43.638Z,100754.56
2023-01-20T19:14:14.454Z,100751.63
2023-01-20T19:16:44.605Z,100749.39
2023-01-20T19:19:13.452Z,100747.02
2023-01-20T19:21:41.684Z,100749.05
2023-01-20T19:24:18.128Z,100751.27
2023-01-20T19:26:46.945Z,100757.34
2023-01-20T19:29:18.664Z,100755.10
2023-01-20T19:31:48.411Z,100759.89
2023-01-20T19:34:16.295Z,100769.12
2023-01-20T19:36:44.405Z,100772.85
2023-01-20T19:39:15.831Z,100772.16
2023-01-20T19:41:44.023Z,100776.44
2023-01-20T19:44:12.927Z,100773.05
2023-01-20T19:46:41.016Z,100775.80
2023-01-20T19:49:11.263Z,100777.16
2023-01-20T19:51:39.152Z,100775.45
2023-01-20T19:54:07.152Z,100771.04
2023-01-20T19:56:35.698Z,100770.02
2023-01-20T19:59:05.403Z,100765.94
2023-01-20T20:01:36.200Z,100761.69
2023-01-20T20:04:10.832Z,100759.81
2023-01-20T20:06:48.589Z,100757.61
2023-01-20T20:09:22.603Z,100751.65
2023-01-20T20:11:50.542Z,100749.34
2023-01-20T20:14:21.879Z,100747.52
2023-01-20T20:16:50.373Z,100750.98
2023-01-20T20:19:19.467Z,100746.05
2023-01-20T20:21:47.581Z,100743.99
2023-01-20T20:24:17.608Z,100745.54
2023-01-20T20:26:47.153Z,100742.66
2023-01-20T20:29:18.129Z,100742.86
2023-01-20T20:31:46.456Z,100739.98
2023-01-20T20:34:18.325Z,100741.73
2023-01-20T20:36:46.525Z,100738.67
2023-01-20T20:39:17.206Z,100735.42
2023-01-20T20:41:47.000Z,100737.16
2023-01-20T20:44:15.337Z,100739.26
2023-01-20T20:46:43.384Z,100746.27
2023-01-20T20:49:17.085Z,100751.44
2023-01-20T20:51:45.378Z,100748.39
2023-01-20T20:54:16.134Z,100748.08
2023-01-20T20:56:44.951Z,100751.35
2023-01-20T20:59:13.076Z,100751.52
2023-01-20T21:01:41.289Z,100748.13
2023-01-20T21:04:12.218Z,100745.02
2023-01-20T21:06:40.055Z,100740.40
2023-01-20T21:09:08.700Z,100740.05
2023-01-20T21:11:38.438Z,100740.91
2023-01-20T21:14:07.592Z,100747.59
2023-01-20T21:16:35.784Z,100747.08
2023-01-20T21:19:04.782Z,100751.21
2023-01-20T21:21:33.002Z,100749.50
2023-01-20T21:24:01.233Z,100749.83
2023-01-20T21:26:30.703Z,100748.11
2023-01-20T21:29:03.233Z,100745.89
2023-01-20T21:31:32.021Z,100748.12
2023-01-20T21:34:00.972Z,100742.48
2023-01-20T21:36:31.159Z,100736.98
2023-01-20T21:38:59.616Z,100740.06
2023-01-20T21:41:31.720Z,100743.52
2023-01-20T21:44:18.550Z,100743.68
2023-01-20T21:46:46.818Z,100735.77
2023-01-20T21:49:33.444Z,100733.06
2023-01-20T21:52:20.143Z,100754.79
2023-01-20T21:54:48.240Z,100762.85
2023-01-20T21:57:16.246Z,100747.81
2023-01-20T21:59:45.221Z,100743.75
2023-01-20T22:02:14.175Z,100742.58
2023-01-20T22:04:43.231Z,100739.28
2023-01-20T22:07:11.523Z,100736.00
2023-01-20T22:09:39.957Z,100734.80
2023-01-20T22:12:08.953Z,100735.30
2023-01-20T22:14:40.123Z,100728.77
2023-01-20T22:17:10.484Z,100727.90
2023-01-20T22:19:39.477Z,100726.69
2023-01-20T22:22:07.555Z,100726.64
2023-01-20T22:24:36.094Z,100723.37
2023-01-20T22:27:04.017Z,100720.48
2023-01-20T22:29:31.944Z,100717.92
2023-01-20T22:32:02.647Z,100717.41
2023-01-20T22:34:30.729Z,100716.91
2023-01-20T22:36:59.921Z,100719.85
2023-01-20T22:39:28.146Z,100718.45
2023-01-20T22:41:56.087Z,100716.02
2023-01-20T22:44:24.017Z,100711.91
2023-01-20T22:46:51.935Z,100708.83
2023-01-20T22:49:22.772Z,100711.05
2023-01-20T22:51:54.728Z,100709.00
2023-01-20T22:54:22.777Z,100704.55
2023-01-20T22:56:50.820Z,100694.13
2023-01-20T22:59:18.787Z,100688.83
2023-01-20T23:01:46.716Z,100683.20
2023-01-20T23:04:15.029Z,100676.88
2023-01-20T23:06:43.177Z,100677.23
2023-01-20T23:09:13.936Z,100677.09
2023-01-20T23:11:41.811Z,100672.97
2023-01-20T23:14:12.215Z,100674.17
2023-01-20T23:16:41.824Z,100672.98
2023-01-20T23:19:10.378Z,100672.83
2023-01-20T23:21:38.278Z,100671.14
2023-01-20T23:24:07.797Z,100668.58
2023-01-20T23:26:35.724Z,100666.55
2023-01-20T23:29:04.811Z,100662.97
2023-01-20T23:31:34.634Z,100661.92
2023-01-20T23:34:02.493Z,100659.86
2023-01-20T23:36:30.350Z,100657.46
2023-01-20T23:38:58.309Z,100655.56
2023-01-20T23:41:26.084Z,100652.14
2023-01-20T23:43:54.647Z,100653.33
2023-01-20T23:46:22.723Z,100650.95
2023-01-20T23:48:50.783Z,100649.77
2023-01-20T23:51:18.732Z,100646.16
2023-01-20T23:53:46.644Z,100643.61
2023-01-20T23:56:20.942Z,100643.80
2023-01-20T23:58:49.788Z,100639.67
